<?xml version="1.0" encoding="UTF-8" standalone="no" ?>
<gpx xmlns="http://www.topografix.com/GPX/1/1" xmlns:xsi="http://www.w3.org/2001/XMLSchema-instance" xsi:schemaLocation="http://www.topografix.com/GPX/1/1 http://www.topografix.com/GPX/1/1/gpx.xsd" version="1.1" creator="VisuGPX - https://www.visugpx.com">
  <metadata>
    <name>Veigy Saint Cergues boucle HW</name>
    <desc><![CDATA[Petite boucle au départ de Veigy passant par Saint Cergues]]></desc>
  </metadata>
  <wpt lat="46.21983" lon="6.30945">
    <ele>538.1</ele>
    <name><![CDATA[La cave aux féees]]></name>
    <type><![CDATA[ville]]></type>
  </wpt>
  <trk>
    <name><![CDATA[Veigy Saint Cergues boucle HW_1]]></name>
    <trkseg>
      <trkpt lat="46.26841" lon="6.25731">
        <ele>428.8</ele>
        <time>2017-09-26T23:45:02Z</time>
      </trkpt>
      <trkpt lat="46.26826" lon="6.25721">
        <ele>429.8</ele>
        <time>2017-09-26T23:47:02Z</time>
      </trkpt>
      <trkpt lat="46.26834" lon="6.2572">
        <ele>429</ele>
        <time>2017-09-26T23:49:02Z</time>
      </trkpt>
      <trkpt lat="46.26823" lon="6.25667">
        <ele>430</ele>
        <time>2017-09-26T23:51:02Z</time>
      </trkpt>
      <trkpt lat="46.2684" lon="6.25578">
        <ele>431.8</ele>
        <time>2017-09-26T23:53:02Z</time>
      </trkpt>
      <trkpt lat="46.26739" lon="6.25444">
        <ele>431</ele>
        <time>2017-09-26T23:55:02Z</time>
      </trkpt>
      <trkpt lat="46.26574" lon="6.25296">
        <ele>432.6</ele>
        <time>2017-09-26T23:57:02Z</time>
      </trkpt>
      <trkpt lat="46.26435" lon="6.25233">
        <ele>435</ele>
        <time>2017-09-26T23:59:02Z</time>
      </trkpt>
      <trkpt lat="46.26341" lon="6.25643">
        <ele>436.2</ele>
        <time>2017-09-27T00:01:02Z</time>
      </trkpt>
      <trkpt lat="46.2625" lon="6.257">
        <ele>438</ele>
        <time>2017-09-27T00:25:02Z</time>
      </trkpt>
      <trkpt lat="46.26085" lon="6.25972">
        <ele>444</ele>
        <time>2017-09-27T00:27:02Z</time>
      </trkpt>
      <trkpt lat="46.25994" lon="6.26244">
        <ele>447.1</ele>
        <time>2017-09-27T00:29:02Z</time>
      </trkpt>
      <trkpt lat="46.25911" lon="6.26412">
        <ele>449.2</ele>
        <time>2017-09-27T00:31:02Z</time>
      </trkpt>
      <trkpt lat="46.25968" lon="6.26466">
        <ele>448.7</ele>
        <time>2017-09-27T00:33:02Z</time>
      </trkpt>
      <trkpt lat="46.25954" lon="6.26548">
        <ele>450</ele>
        <time>2017-09-27T00:35:02Z</time>
      </trkpt>
      <trkpt lat="46.25969" lon="6.26579">
        <ele>450.3</ele>
        <time>2017-09-27T00:37:02Z</time>
      </trkpt>
      <trkpt lat="46.2595" lon="6.26661">
        <ele>451.4</ele>
        <time>2017-09-27T00:39:02Z</time>
      </trkpt>
      <trkpt lat="46.25942" lon="6.26717">
        <ele>452.9</ele>
        <time>2017-09-27T00:41:02Z</time>
      </trkpt>
      <trkpt lat="46.2593" lon="6.26811">
        <ele>453.6</ele>
        <time>2017-09-27T00:43:02Z</time>
      </trkpt>
      <trkpt lat="46.25917" lon="6.26907">
        <ele>452.9</ele>
        <time>2017-09-27T00:45:02Z</time>
      </trkpt>
      <trkpt lat="46.25905" lon="6.26985">
        <ele>452.6</ele>
        <time>2017-09-27T00:47:02Z</time>
      </trkpt>
      <trkpt lat="46.25847" lon="6.27135">
        <ele>456.3</ele>
        <time>2017-09-27T00:49:02Z</time>
      </trkpt>
      <trkpt lat="46.25883" lon="6.27184">
        <ele>458</ele>
        <time>2017-09-27T00:51:02Z</time>
      </trkpt>
      <trkpt lat="46.25958" lon="6.27249">
        <ele>459</ele>
        <time>2017-09-27T00:53:02Z</time>
      </trkpt>
      <trkpt lat="46.25985" lon="6.27348">
        <ele>461</ele>
        <time>2017-09-27T00:55:02Z</time>
      </trkpt>
      <trkpt lat="46.25986" lon="6.27458">
        <ele>466</ele>
        <time>2017-09-27T00:57:02Z</time>
      </trkpt>
      <trkpt lat="46.25997" lon="6.27573">
        <ele>467</ele>
        <time>2017-09-27T00:59:02Z</time>
      </trkpt>
      <trkpt lat="46.25986" lon="6.27662">
        <ele>470</ele>
        <time>2017-09-27T01:01:02Z</time>
      </trkpt>
      <trkpt lat="46.25952" lon="6.27728">
        <ele>472</ele>
        <time>2017-09-27T01:03:02Z</time>
      </trkpt>
      <trkpt lat="46.25902" lon="6.27833">
        <ele>471</ele>
        <time>2017-09-27T01:05:02Z</time>
      </trkpt>
      <trkpt lat="46.2588" lon="6.27881">
        <ele>473</ele>
        <time>2017-09-27T01:07:02Z</time>
      </trkpt>
      <trkpt lat="46.25831" lon="6.27945">
        <ele>474</ele>
        <time>2017-09-27T01:09:02Z</time>
      </trkpt>
      <trkpt lat="46.25778" lon="6.28039">
        <ele>474</ele>
        <time>2017-09-27T01:11:02Z</time>
      </trkpt>
      <trkpt lat="46.25741" lon="6.28138">
        <ele>476</ele>
        <time>2017-09-27T01:13:02Z</time>
      </trkpt>
      <trkpt lat="46.25737" lon="6.28216">
        <ele>476</ele>
        <time>2017-09-27T01:15:02Z</time>
      </trkpt>
      <trkpt lat="46.25757" lon="6.28325">
        <ele>474</ele>
        <time>2017-09-27T01:17:02Z</time>
      </trkpt>
      <trkpt lat="46.25788" lon="6.28434">
        <ele>475</ele>
        <time>2017-09-27T01:19:02Z</time>
      </trkpt>
      <trkpt lat="46.25839" lon="6.28526">
        <ele>475</ele>
        <time>2017-09-27T01:21:02Z</time>
      </trkpt>
      <trkpt lat="46.2587" lon="6.28633">
        <ele>477</ele>
        <time>2017-09-27T01:23:02Z</time>
      </trkpt>
      <trkpt lat="46.25935" lon="6.28716">
        <ele>477</ele>
        <time>2017-09-27T01:25:02Z</time>
      </trkpt>
      <trkpt lat="46.25987" lon="6.28818">
        <ele>476</ele>
        <time>2017-09-27T01:27:02Z</time>
      </trkpt>
      <trkpt lat="46.26002" lon="6.28856">
        <ele>475</ele>
        <time>2017-09-27T01:29:02Z</time>
      </trkpt>
      <trkpt lat="46.25999" lon="6.28882">
        <ele>474</ele>
        <time>2017-09-27T01:31:02Z</time>
      </trkpt>
      <trkpt lat="46.2596" lon="6.28921">
        <ele>475</ele>
        <time>2017-09-27T01:33:02Z</time>
      </trkpt>
      <trkpt lat="46.25982" lon="6.28968">
        <ele>476</ele>
        <time>2017-09-27T01:35:02Z</time>
      </trkpt>
      <trkpt lat="46.26033" lon="6.2902">
        <ele>476</ele>
        <time>2017-09-27T01:37:02Z</time>
      </trkpt>
      <trkpt lat="46.26096" lon="6.29071">
        <ele>474</ele>
        <time>2017-09-27T01:39:02Z</time>
      </trkpt>
      <trkpt lat="46.26145" lon="6.29103">
        <ele>473</ele>
        <time>2017-09-27T01:41:02Z</time>
      </trkpt>
      <trkpt lat="46.26191" lon="6.2914">
        <ele>473</ele>
        <time>2017-09-27T01:43:02Z</time>
      </trkpt>
      <trkpt lat="46.26249" lon="6.29156">
        <ele>473</ele>
        <time>2017-09-27T01:45:02Z</time>
      </trkpt>
      <trkpt lat="46.26324" lon="6.29216">
        <ele>470</ele>
        <time>2017-09-27T01:47:02Z</time>
      </trkpt>
      <trkpt lat="46.26325" lon="6.29275">
        <ele>471</ele>
        <time>2017-09-27T01:49:02Z</time>
      </trkpt>
      <trkpt lat="46.2635" lon="6.29325">
        <ele>470</ele>
        <time>2017-09-27T01:51:02Z</time>
      </trkpt>
      <trkpt lat="46.26377" lon="6.2939">
        <ele>468</ele>
        <time>2017-09-27T01:53:02Z</time>
      </trkpt>
      <trkpt lat="46.26424" lon="6.29456">
        <ele>469</ele>
        <time>2017-09-27T01:55:02Z</time>
      </trkpt>
      <trkpt lat="46.26437" lon="6.29504">
        <ele>471</ele>
        <time>2017-09-27T01:57:02Z</time>
      </trkpt>
      <trkpt lat="46.26407" lon="6.29604">
        <ele>472</ele>
        <time>2017-09-27T01:59:02Z</time>
      </trkpt>
      <trkpt lat="46.26383" lon="6.29611">
        <ele>474</ele>
        <time>2017-09-27T02:01:02Z</time>
      </trkpt>
      <trkpt lat="46.26351" lon="6.29637">
        <ele>475</ele>
        <time>2017-09-27T02:03:02Z</time>
      </trkpt>
      <trkpt lat="46.26319" lon="6.29619">
        <ele>477</ele>
        <time>2017-09-27T02:05:02Z</time>
      </trkpt>
      <trkpt lat="46.26268" lon="6.29593">
        <ele>477</ele>
        <time>2017-09-27T02:07:02Z</time>
      </trkpt>
      <trkpt lat="46.26244" lon="6.29599">
        <ele>477</ele>
        <time>2017-09-27T02:09:02Z</time>
      </trkpt>
      <trkpt lat="46.26209" lon="6.29596">
        <ele>476</ele>
        <time>2017-09-27T02:11:02Z</time>
      </trkpt>
      <trkpt lat="46.26149" lon="6.29579">
        <ele>473</ele>
        <time>2017-09-27T02:13:02Z</time>
      </trkpt>
      <trkpt lat="46.26093" lon="6.29538">
        <ele>470</ele>
        <time>2017-09-27T02:15:02Z</time>
      </trkpt>
      <trkpt lat="46.26035" lon="6.29505">
        <ele>469</ele>
        <time>2017-09-27T02:17:02Z</time>
      </trkpt>
      <trkpt lat="46.25992" lon="6.29446">
        <ele>472</ele>
        <time>2017-09-27T02:19:02Z</time>
      </trkpt>
      <trkpt lat="46.25968" lon="6.29395">
        <ele>477</ele>
        <time>2017-09-27T02:21:02Z</time>
      </trkpt>
      <trkpt lat="46.25934" lon="6.29405">
        <ele>477</ele>
        <time>2017-09-27T02:23:02Z</time>
      </trkpt>
      <trkpt lat="46.25886" lon="6.29393">
        <ele>477</ele>
        <time>2017-09-27T02:25:02Z</time>
      </trkpt>
      <trkpt lat="46.25797" lon="6.29382">
        <ele>475</ele>
        <time>2017-09-27T02:27:02Z</time>
      </trkpt>
      <trkpt lat="46.2578" lon="6.29413">
        <ele>474</ele>
        <time>2017-09-27T02:29:02Z</time>
      </trkpt>
      <trkpt lat="46.25732" lon="6.29451">
        <ele>473</ele>
        <time>2017-09-27T02:31:02Z</time>
      </trkpt>
      <trkpt lat="46.25678" lon="6.29481">
        <ele>474</ele>
        <time>2017-09-27T02:33:02Z</time>
      </trkpt>
      <trkpt lat="46.25642" lon="6.29482">
        <ele>476</ele>
        <time>2017-09-27T02:35:02Z</time>
      </trkpt>
      <trkpt lat="46.25602" lon="6.29536">
        <ele>480</ele>
        <time>2017-09-27T02:37:02Z</time>
      </trkpt>
      <trkpt lat="46.25578" lon="6.29573">
        <ele>484</ele>
        <time>2017-09-27T02:39:02Z</time>
      </trkpt>
      <trkpt lat="46.25564" lon="6.29632">
        <ele>485</ele>
        <time>2017-09-27T02:41:02Z</time>
      </trkpt>
      <trkpt lat="46.25535" lon="6.29812">
        <ele>492</ele>
        <time>2017-09-27T03:09:02Z</time>
      </trkpt>
      <trkpt lat="46.25532" lon="6.29878">
        <ele>492</ele>
        <time>2017-09-27T04:01:02Z</time>
      </trkpt>
      <trkpt lat="46.25536" lon="6.29947">
        <ele>492</ele>
        <time>2017-09-27T04:03:02Z</time>
      </trkpt>
      <trkpt lat="46.25525" lon="6.30002">
        <ele>493</ele>
        <time>2017-09-27T04:05:02Z</time>
      </trkpt>
      <trkpt lat="46.25515" lon="6.30066">
        <ele>492</ele>
        <time>2017-09-27T04:07:02Z</time>
      </trkpt>
      <trkpt lat="46.25472" lon="6.30177">
        <ele>491</ele>
        <time>2017-09-27T04:09:02Z</time>
      </trkpt>
      <trkpt lat="46.25468" lon="6.30211">
        <ele>492</ele>
        <time>2017-09-27T04:11:02Z</time>
      </trkpt>
      <trkpt lat="46.25462" lon="6.30216">
        <ele>493</ele>
        <time>2017-09-27T04:15:02Z</time>
      </trkpt>
      <trkpt lat="46.25479" lon="6.3024">
        <ele>491</ele>
        <time>2017-09-27T04:17:02Z</time>
      </trkpt>
      <trkpt lat="46.25483" lon="6.30303">
        <ele>494</ele>
        <time>2017-09-27T04:19:02Z</time>
      </trkpt>
      <trkpt lat="46.25503" lon="6.30352">
        <ele>496</ele>
        <time>2017-09-27T04:21:02Z</time>
      </trkpt>
      <trkpt lat="46.25543" lon="6.30413">
        <ele>492</ele>
        <time>2017-09-27T04:25:02Z</time>
      </trkpt>
      <trkpt lat="46.25576" lon="6.30482">
        <ele>495</ele>
        <time>2017-09-27T04:27:02Z</time>
      </trkpt>
      <trkpt lat="46.2557" lon="6.30523">
        <ele>497.4</ele>
        <time>2017-09-27T04:29:02Z</time>
      </trkpt>
      <trkpt lat="46.25555" lon="6.30601">
        <ele>502.6</ele>
        <time>2017-09-27T04:31:02Z</time>
      </trkpt>
      <trkpt lat="46.2555" lon="6.3071">
        <ele>507.6</ele>
        <time>2017-09-27T04:33:02Z</time>
      </trkpt>
      <trkpt lat="46.25526" lon="6.30854">
        <ele>509</ele>
        <time>2017-09-27T04:35:02Z</time>
      </trkpt>
      <trkpt lat="46.25477" lon="6.3097">
        <ele>507.9</ele>
        <time>2017-09-27T04:37:02Z</time>
      </trkpt>
      <trkpt lat="46.25411" lon="6.311">
        <ele>512.5</ele>
        <time>2017-09-27T04:39:02Z</time>
      </trkpt>
      <trkpt lat="46.25386" lon="6.31182">
        <ele>514.4</ele>
        <time>2017-09-27T04:41:02Z</time>
      </trkpt>
      <trkpt lat="46.25355" lon="6.31279">
        <ele>518.1</ele>
        <time>2017-09-27T04:45:02Z</time>
      </trkpt>
      <trkpt lat="46.25439" lon="6.31361">
        <ele>519</ele>
        <time>2017-09-27T04:47:02Z</time>
      </trkpt>
      <trkpt lat="46.25515" lon="6.31433">
        <ele>519</ele>
        <time>2017-09-27T04:49:02Z</time>
      </trkpt>
      <trkpt lat="46.25466" lon="6.31541">
        <ele>523</ele>
        <time>2017-09-27T04:53:02Z</time>
      </trkpt>
      <trkpt lat="46.25412" lon="6.31647">
        <ele>525</ele>
        <time>2017-09-27T04:55:02Z</time>
      </trkpt>
      <trkpt lat="46.25359" lon="6.31754">
        <ele>528</ele>
        <time>2017-09-27T04:57:02Z</time>
      </trkpt>
      <trkpt lat="46.2531" lon="6.31868">
        <ele>531</ele>
        <time>2017-09-27T04:59:02Z</time>
      </trkpt>
      <trkpt lat="46.25257" lon="6.31975">
        <ele>533</ele>
        <time>2017-09-27T05:01:02Z</time>
      </trkpt>
      <trkpt lat="46.25193" lon="6.3207">
        <ele>534</ele>
        <time>2017-09-27T05:03:02Z</time>
      </trkpt>
      <trkpt lat="46.25138" lon="6.32176">
        <ele>535</ele>
        <time>2017-09-26T18:45:02Z</time>
      </trkpt>
      <trkpt lat="46.25095" lon="6.32297">
        <ele>535</ele>
        <time>2017-09-26T18:45:02Z</time>
      </trkpt>
      <trkpt lat="46.25042" lon="6.32431">
        <ele>535.5</ele>
        <time>2017-09-26T18:51:02Z</time>
      </trkpt>
      <trkpt lat="46.24991" lon="6.32448">
        <ele>533</ele>
        <time>2017-09-26T18:53:02Z</time>
      </trkpt>
      <trkpt lat="46.24989" lon="6.32527">
        <ele>529</ele>
        <time>2017-09-26T18:55:02Z</time>
      </trkpt>
      <trkpt lat="46.24977" lon="6.32575">
        <ele>527</ele>
        <time>2017-09-26T18:57:02Z</time>
      </trkpt>
      <trkpt lat="46.24925" lon="6.32583">
        <ele>522</ele>
        <time>2017-09-26T18:59:02Z</time>
      </trkpt>
      <trkpt lat="46.249" lon="6.32584">
        <ele>522</ele>
        <time>2017-09-26T19:01:02Z</time>
      </trkpt>
      <trkpt lat="46.24874" lon="6.32479">
        <ele>522</ele>
        <time>2017-09-26T19:03:02Z</time>
      </trkpt>
      <trkpt lat="46.24804" lon="6.32391">
        <ele>518</ele>
        <time>2017-09-26T19:05:02Z</time>
      </trkpt>
      <trkpt lat="46.24746" lon="6.32281">
        <ele>516</ele>
        <time>2017-09-26T19:07:02Z</time>
      </trkpt>
      <trkpt lat="46.24644" lon="6.32054">
        <ele>514</ele>
        <time>2017-09-26T19:09:02Z</time>
      </trkpt>
      <trkpt lat="46.24619" lon="6.31941">
        <ele>511</ele>
        <time>2017-09-26T19:11:02Z</time>
      </trkpt>
      <trkpt lat="46.2456" lon="6.31837">
        <ele>511</ele>
        <time>2017-09-26T19:13:02Z</time>
      </trkpt>
      <trkpt lat="46.24534" lon="6.31805">
        <ele>511</ele>
        <time>2017-09-26T19:19:02Z</time>
      </trkpt>
      <trkpt lat="46.24504" lon="6.3163">
        <ele>511</ele>
        <time>2017-09-26T19:21:02Z</time>
      </trkpt>
      <trkpt lat="46.24406" lon="6.31532">
        <ele>514</ele>
        <time>2017-09-26T19:23:02Z</time>
      </trkpt>
      <trkpt lat="46.24336" lon="6.31506">
        <ele>513.9</ele>
        <time>2017-09-26T19:25:02Z</time>
      </trkpt>
      <trkpt lat="46.24329" lon="6.31476">
        <ele>513</ele>
        <time>2017-09-26T19:27:02Z</time>
      </trkpt>
      <trkpt lat="46.24262" lon="6.31405">
        <ele>513</ele>
        <time>2017-09-26T19:29:02Z</time>
      </trkpt>
      <trkpt lat="46.24227" lon="6.31379">
        <ele>511</ele>
        <time>2017-09-26T19:31:02Z</time>
      </trkpt>
      <trkpt lat="46.24215" lon="6.31431">
        <ele>512</ele>
        <time>2017-09-26T19:33:02Z</time>
      </trkpt>
      <trkpt lat="46.2421" lon="6.31441">
        <ele>512</ele>
        <time>2017-09-26T19:35:02Z</time>
      </trkpt>
      <trkpt lat="46.24211" lon="6.31443">
        <ele>512</ele>
        <time>2017-09-26T19:37:02Z</time>
      </trkpt>
      <trkpt lat="46.24211" lon="6.31442">
        <ele>512</ele>
        <time>2017-09-26T19:39:02Z</time>
      </trkpt>
      <trkpt lat="46.24204" lon="6.31443">
        <ele>511</ele>
        <time>2017-09-26T19:41:02Z</time>
      </trkpt>
      <trkpt lat="46.242" lon="6.31448">
        <ele>511</ele>
        <time>2017-09-26T19:43:02Z</time>
      </trkpt>
      <trkpt lat="46.24168" lon="6.31525">
        <ele>511.6</ele>
        <time>2017-09-26T19:45:02Z</time>
      </trkpt>
      <trkpt lat="46.24153" lon="6.3146">
        <ele>509.5</ele>
        <time>2017-09-26T19:47:02Z</time>
      </trkpt>
      <trkpt lat="46.24128" lon="6.31378">
        <ele>508</ele>
        <time>2017-09-26T19:49:02Z</time>
      </trkpt>
      <trkpt lat="46.2405" lon="6.31295">
        <ele>508</ele>
        <time>2017-09-26T19:51:02Z</time>
      </trkpt>
      <trkpt lat="46.23996" lon="6.31277">
        <ele>507.6</ele>
        <time>2017-09-26T19:55:02Z</time>
      </trkpt>
      <trkpt lat="46.23963" lon="6.31239">
        <ele>508</ele>
        <time>2017-09-26T19:57:02Z</time>
      </trkpt>
      <trkpt lat="46.2388" lon="6.31176">
        <ele>508</ele>
        <time>2017-09-26T19:59:02Z</time>
      </trkpt>
      <trkpt lat="46.23816" lon="6.31156">
        <ele>507</ele>
        <time>2017-09-26T20:01:02Z</time>
      </trkpt>
      <trkpt lat="46.23749" lon="6.31236">
        <ele>507</ele>
        <time>2017-09-26T20:03:02Z</time>
      </trkpt>
      <trkpt lat="46.23718" lon="6.31301">
        <ele>507</ele>
        <time>2017-09-26T20:05:02Z</time>
      </trkpt>
      <trkpt lat="46.23701" lon="6.31331">
        <ele>509</ele>
        <time>2017-09-26T20:13:02Z</time>
      </trkpt>
      <trkpt lat="46.23689" lon="6.31325">
        <ele>509</ele>
        <time>2017-09-26T20:17:02Z</time>
      </trkpt>
      <trkpt lat="46.23689" lon="6.31325">
        <ele>509</ele>
        <time>2017-09-26T20:19:02Z</time>
      </trkpt>
      <trkpt lat="46.23689" lon="6.31326">
        <ele>509</ele>
        <time>2017-09-26T20:21:02Z</time>
      </trkpt>
      <trkpt lat="46.23647" lon="6.31296">
        <ele>508</ele>
        <time>2017-09-26T20:23:02Z</time>
      </trkpt>
      <trkpt lat="46.23571" lon="6.31233">
        <ele>507.5</ele>
        <time>2017-09-26T20:25:02Z</time>
      </trkpt>
      <trkpt lat="46.23506" lon="6.31186">
        <ele>507.2</ele>
        <time>2017-09-26T20:27:02Z</time>
      </trkpt>
      <trkpt lat="46.23484" lon="6.31209">
        <ele>507.7</ele>
        <time>2017-09-26T20:31:02Z</time>
      </trkpt>
      <trkpt lat="46.23441" lon="6.31196">
        <ele>507.5</ele>
        <time>2017-09-26T20:33:02Z</time>
      </trkpt>
      <trkpt lat="46.23409" lon="6.31156">
        <ele>506</ele>
        <time>2017-09-26T20:35:02Z</time>
      </trkpt>
      <trkpt lat="46.23366" lon="6.31116">
        <ele>507</ele>
        <time>2017-09-26T20:37:02Z</time>
      </trkpt>
      <trkpt lat="46.23316" lon="6.31066">
        <ele>508</ele>
        <time>2017-09-26T20:39:02Z</time>
      </trkpt>
      <trkpt lat="46.23242" lon="6.31025">
        <ele>507</ele>
        <time>2017-09-26T20:45:02Z</time>
      </trkpt>
      <trkpt lat="46.23195" lon="6.3097">
        <ele>510</ele>
        <time>2017-09-26T20:47:02Z</time>
      </trkpt>
      <trkpt lat="46.23255" lon="6.30895">
        <ele>505</ele>
        <time>2017-09-26T20:51:02Z</time>
      </trkpt>
      <trkpt lat="46.23306" lon="6.30784">
        <ele>505</ele>
        <time>2017-09-26T20:53:02Z</time>
      </trkpt>
      <trkpt lat="46.23316" lon="6.30732">
        <ele>506.9</ele>
        <time>2017-09-26T20:55:02Z</time>
      </trkpt>
      <trkpt lat="46.23307" lon="6.30698">
        <ele>509</ele>
        <time>2017-09-26T20:57:02Z</time>
      </trkpt>
      <trkpt lat="46.23225" lon="6.30627">
        <ele>507</ele>
        <time>2017-09-26T20:59:02Z</time>
      </trkpt>
      <trkpt lat="46.23144" lon="6.30571">
        <ele>504</ele>
        <time>2017-09-26T21:01:02Z</time>
      </trkpt>
      <trkpt lat="46.23063" lon="6.30517">
        <ele>499</ele>
        <time>2017-09-26T21:03:02Z</time>
      </trkpt>
      <trkpt lat="46.2298" lon="6.30464">
        <ele>498</ele>
        <time>2017-09-26T21:05:02Z</time>
      </trkpt>
      <trkpt lat="46.22895" lon="6.30419">
        <ele>496</ele>
        <time>2017-09-26T21:07:02Z</time>
      </trkpt>
      <trkpt lat="46.22811" lon="6.30367">
        <ele>495</ele>
        <time>2017-09-26T21:09:02Z</time>
      </trkpt>
      <trkpt lat="46.22733" lon="6.30311">
        <ele>494</ele>
        <time>2017-09-26T21:11:02Z</time>
      </trkpt>
      <trkpt lat="46.22618" lon="6.30231">
        <ele>499</ele>
        <time>2017-09-26T21:13:02Z</time>
      </trkpt>
      <trkpt lat="46.22542" lon="6.302">
        <ele>498</ele>
        <time>2017-09-26T21:15:02Z</time>
      </trkpt>
      <trkpt lat="46.22486" lon="6.30159">
        <ele>497.2</ele>
        <time>2017-09-26T21:17:02Z</time>
      </trkpt>
      <trkpt lat="46.2245" lon="6.30142">
        <ele>497.8</ele>
        <time>2017-09-26T21:19:02Z</time>
      </trkpt>
      <trkpt lat="46.22401" lon="6.30109">
        <ele>497</ele>
        <time>2017-09-26T21:21:02Z</time>
      </trkpt>
      <trkpt lat="46.22312" lon="6.30017">
        <ele>491</ele>
        <time>2017-09-26T21:23:02Z</time>
      </trkpt>
      <trkpt lat="46.22231" lon="6.29955">
        <ele>489</ele>
        <time>2017-09-26T21:25:02Z</time>
      </trkpt>
      <trkpt lat="46.22142" lon="6.29883">
        <ele>486</ele>
        <time>2017-09-26T21:27:02Z</time>
      </trkpt>
      <trkpt lat="46.22061" lon="6.29819">
        <ele>488</ele>
        <time>2017-09-26T21:41:02Z</time>
      </trkpt>
      <trkpt lat="46.22006" lon="6.29799">
        <ele>487.9</ele>
        <time>2017-09-26T21:43:02Z</time>
      </trkpt>
      <trkpt lat="46.21979" lon="6.29765">
        <ele>486</ele>
        <time>2017-09-26T21:45:02Z</time>
      </trkpt>
      <trkpt lat="46.21929" lon="6.29701">
        <ele>482.2</ele>
        <time>2017-09-26T21:47:02Z</time>
      </trkpt>
      <trkpt lat="46.21825" lon="6.29512">
        <ele>479.8</ele>
        <time>2017-09-26T21:49:02Z</time>
      </trkpt>
      <trkpt lat="46.21836" lon="6.29493">
        <ele>479.6</ele>
        <time>2017-09-26T21:51:02Z</time>
      </trkpt>
      <trkpt lat="46.21773" lon="6.29393">
        <ele>479</ele>
        <time>2017-09-26T21:53:02Z</time>
      </trkpt>
      <trkpt lat="46.21749" lon="6.29335">
        <ele>480.1</ele>
        <time>2017-09-26T21:55:02Z</time>
      </trkpt>
      <trkpt lat="46.21759" lon="6.29202">
        <ele>478.3</ele>
        <time>2017-09-26T21:57:02Z</time>
      </trkpt>
      <trkpt lat="46.2174" lon="6.29137">
        <ele>476</ele>
        <time>2017-09-26T21:59:02Z</time>
      </trkpt>
      <trkpt lat="46.21686" lon="6.29025">
        <ele>475</ele>
        <time>2017-09-26T22:01:02Z</time>
      </trkpt>
      <trkpt lat="46.21575" lon="6.28804">
        <ele>473</ele>
        <time>2017-09-26T22:03:02Z</time>
      </trkpt>
      <trkpt lat="46.21525" lon="6.2869">
        <ele>470</ele>
        <time>2017-09-26T22:05:02Z</time>
      </trkpt>
      <trkpt lat="46.21488" lon="6.28565">
        <ele>468</ele>
        <time>2017-09-26T22:07:02Z</time>
      </trkpt>
      <trkpt lat="46.21467" lon="6.28434">
        <ele>468</ele>
        <time>2017-09-26T22:09:02Z</time>
      </trkpt>
      <trkpt lat="46.21424" lon="6.2831">
        <ele>467.8</ele>
        <time>2017-09-26T22:11:02Z</time>
      </trkpt>
      <trkpt lat="46.2143" lon="6.28219">
        <ele>473</ele>
        <time>2017-09-26T22:13:02Z</time>
      </trkpt>
      <trkpt lat="46.21494" lon="6.28202">
        <ele>476</ele>
        <time>2017-09-26T22:15:02Z</time>
      </trkpt>
      <trkpt lat="46.21523" lon="6.28166">
        <ele>482.2</ele>
        <time>2017-09-26T22:17:02Z</time>
      </trkpt>
      <trkpt lat="46.21514" lon="6.28128">
        <ele>482</ele>
        <time>2017-09-26T22:19:02Z</time>
      </trkpt>
      <trkpt lat="46.21487" lon="6.28083">
        <ele>483.8</ele>
        <time>2017-09-26T22:21:02Z</time>
      </trkpt>
      <trkpt lat="46.21518" lon="6.28083">
        <ele>485</ele>
        <time>2017-09-26T22:23:02Z</time>
      </trkpt>
      <trkpt lat="46.21562" lon="6.28055">
        <ele>485.1</ele>
        <time>2017-09-26T22:25:02Z</time>
      </trkpt>
      <trkpt lat="46.21576" lon="6.28077">
        <ele>484</ele>
        <time>2017-09-26T22:27:02Z</time>
      </trkpt>
      <trkpt lat="46.21649" lon="6.28145">
        <ele>488.4</ele>
        <time>2017-09-26T22:29:02Z</time>
      </trkpt>
      <trkpt lat="46.21706" lon="6.28109">
        <ele>494.4</ele>
        <time>2017-09-26T22:31:02Z</time>
      </trkpt>
      <trkpt lat="46.21769" lon="6.28064">
        <ele>498</ele>
        <time>2017-09-26T22:33:02Z</time>
      </trkpt>
      <trkpt lat="46.21831" lon="6.28016">
        <ele>501</ele>
        <time>2017-09-26T22:35:02Z</time>
      </trkpt>
      <trkpt lat="46.21899" lon="6.27939">
        <ele>503.4</ele>
        <time>2017-09-26T22:37:02Z</time>
      </trkpt>
      <trkpt lat="46.21971" lon="6.28004">
        <ele>503</ele>
        <time>2017-09-26T22:39:02Z</time>
      </trkpt>
      <trkpt lat="46.22053" lon="6.28064">
        <ele>504</ele>
        <time>2017-09-26T22:41:02Z</time>
      </trkpt>
      <trkpt lat="46.22094" lon="6.28176">
        <ele>504</ele>
        <time>2017-09-26T22:43:02Z</time>
      </trkpt>
      <trkpt lat="46.22156" lon="6.28265">
        <ele>505</ele>
        <time>2017-09-26T22:45:02Z</time>
      </trkpt>
      <trkpt lat="46.22227" lon="6.28343">
        <ele>504</ele>
        <time>2017-09-26T22:47:02Z</time>
      </trkpt>
      <trkpt lat="46.22274" lon="6.2844">
        <ele>502</ele>
        <time>2017-09-26T22:49:02Z</time>
      </trkpt>
      <trkpt lat="46.22344" lon="6.28493">
        <ele>506</ele>
        <time>2017-09-26T22:51:02Z</time>
      </trkpt>
      <trkpt lat="46.22424" lon="6.28516">
        <ele>507</ele>
        <time>2017-09-26T22:53:02Z</time>
      </trkpt>
      <trkpt lat="46.22477" lon="6.28565">
        <ele>508</ele>
        <time>2017-09-26T22:55:02Z</time>
      </trkpt>
      <trkpt lat="46.22483" lon="6.28506">
        <ele>509</ele>
        <time>2017-09-26T22:57:02Z</time>
      </trkpt>
      <trkpt lat="46.22487" lon="6.28455">
        <ele>509</ele>
        <time>2017-09-26T22:59:02Z</time>
      </trkpt>
      <trkpt lat="46.22487" lon="6.28362">
        <ele>508</ele>
        <time>2017-09-26T23:01:02Z</time>
      </trkpt>
      <trkpt lat="46.22508" lon="6.28265">
        <ele>506</ele>
        <time>2017-09-26T23:03:02Z</time>
      </trkpt>
      <trkpt lat="46.22516" lon="6.28211">
        <ele>503</ele>
        <time>2017-09-26T23:05:02Z</time>
      </trkpt>
      <trkpt lat="46.22546" lon="6.28097">
        <ele>500</ele>
        <time>2017-09-26T23:07:02Z</time>
      </trkpt>
      <trkpt lat="46.22576" lon="6.27967">
        <ele>499</ele>
        <time>2017-09-26T23:09:02Z</time>
      </trkpt>
      <trkpt lat="46.22589" lon="6.27927">
        <ele>499</ele>
        <time>2017-09-26T23:11:02Z</time>
      </trkpt>
      <trkpt lat="46.22537" lon="6.27897">
        <ele>498</ele>
        <time>2017-09-26T23:13:02Z</time>
      </trkpt>
      <trkpt lat="46.22465" lon="6.27817">
        <ele>502</ele>
      </trkpt>
      <trkpt lat="46.22429" lon="6.27767">
        <ele>502.8</ele>
      </trkpt>
      <trkpt lat="46.22473" lon="6.2772">
        <ele>500.8</ele>
      </trkpt>
      <trkpt lat="46.22495" lon="6.27691">
        <ele>499.8</ele>
      </trkpt>
      <trkpt lat="46.2251" lon="6.27675">
        <ele>497.8</ele>
      </trkpt>
      <trkpt lat="46.2255" lon="6.27625">
        <ele>493</ele>
      </trkpt>
      <trkpt lat="46.22604" lon="6.27524">
        <ele>485</ele>
      </trkpt>
      <trkpt lat="46.22658" lon="6.27446">
        <ele>482</ele>
      </trkpt>
      <trkpt lat="46.2274" lon="6.27424">
        <ele>479</ele>
      </trkpt>
      <trkpt lat="46.22806" lon="6.27358">
        <ele>482</ele>
      </trkpt>
      <trkpt lat="46.22843" lon="6.2735">
        <ele>483</ele>
      </trkpt>
      <trkpt lat="46.22882" lon="6.27396">
        <ele>482</ele>
      </trkpt>
      <trkpt lat="46.22946" lon="6.27465">
        <ele>483</ele>
      </trkpt>
      <trkpt lat="46.23009" lon="6.27538">
        <ele>485</ele>
      </trkpt>
      <trkpt lat="46.23046" lon="6.27576">
        <ele>485</ele>
      </trkpt>
      <trkpt lat="46.23078" lon="6.27505">
        <ele>482</ele>
      </trkpt>
      <trkpt lat="46.23153" lon="6.27316">
        <ele>479</ele>
      </trkpt>
      <trkpt lat="46.23196" lon="6.27231">
        <ele>478</ele>
      </trkpt>
      <trkpt lat="46.23247" lon="6.27272">
        <ele>478</ele>
      </trkpt>
      <trkpt lat="46.23402" lon="6.27401">
        <ele>476</ele>
      </trkpt>
      <trkpt lat="46.23478" lon="6.27469">
        <ele>477</ele>
      </trkpt>
      <trkpt lat="46.23556" lon="6.27518">
        <ele>479</ele>
      </trkpt>
      <trkpt lat="46.23708" lon="6.27619">
        <ele>481</ele>
      </trkpt>
      <trkpt lat="46.23775" lon="6.2766">
        <ele>482</ele>
      </trkpt>
      <trkpt lat="46.23848" lon="6.27589">
        <ele>480</ele>
      </trkpt>
      <trkpt lat="46.23916" lon="6.27489">
        <ele>476</ele>
      </trkpt>
      <trkpt lat="46.23943" lon="6.27444">
        <ele>475</ele>
      </trkpt>
      <trkpt lat="46.23971" lon="6.27401">
        <ele>474</ele>
      </trkpt>
      <trkpt lat="46.24027" lon="6.27284">
        <ele>473</ele>
      </trkpt>
      <trkpt lat="46.24051" lon="6.27257">
        <ele>473</ele>
      </trkpt>
      <trkpt lat="46.24096" lon="6.27294">
        <ele>471</ele>
      </trkpt>
      <trkpt lat="46.24153" lon="6.27379">
        <ele>472</ele>
      </trkpt>
      <trkpt lat="46.24197" lon="6.27484">
        <ele>473</ele>
      </trkpt>
      <trkpt lat="46.24233" lon="6.27584">
        <ele>474</ele>
      </trkpt>
      <trkpt lat="46.24318" lon="6.2778">
        <ele>475</ele>
      </trkpt>
      <trkpt lat="46.24365" lon="6.27882">
        <ele>477</ele>
      </trkpt>
      <trkpt lat="46.24417" lon="6.2798">
        <ele>477</ele>
      </trkpt>
      <trkpt lat="46.24487" lon="6.28017">
        <ele>476</ele>
      </trkpt>
      <trkpt lat="46.24522" lon="6.28116">
        <ele>476</ele>
      </trkpt>
      <trkpt lat="46.24532" lon="6.28127">
        <ele>477</ele>
      </trkpt>
      <trkpt lat="46.24589" lon="6.28064">
        <ele>476</ele>
      </trkpt>
      <trkpt lat="46.24663" lon="6.27972">
        <ele>473</ele>
      </trkpt>
      <trkpt lat="46.24878" lon="6.27699">
        <ele>467</ele>
      </trkpt>
      <trkpt lat="46.25017" lon="6.27514">
        <ele>465</ele>
      </trkpt>
      <trkpt lat="46.25031" lon="6.27485">
        <ele>466</ele>
      </trkpt>
      <trkpt lat="46.25029" lon="6.27477">
        <ele>466</ele>
      </trkpt>
      <trkpt lat="46.24983" lon="6.27369">
        <ele>465</ele>
      </trkpt>
      <trkpt lat="46.24932" lon="6.2726">
        <ele>462</ele>
      </trkpt>
      <trkpt lat="46.249" lon="6.27133">
        <ele>461</ele>
      </trkpt>
      <trkpt lat="46.24851" lon="6.27024">
        <ele>462</ele>
      </trkpt>
      <trkpt lat="46.24809" lon="6.26905">
        <ele>463</ele>
      </trkpt>
      <trkpt lat="46.24782" lon="6.26793">
        <ele>462</ele>
      </trkpt>
      <trkpt lat="46.24796" lon="6.26746">
        <ele>462</ele>
      </trkpt>
      <trkpt lat="46.24774" lon="6.26677">
        <ele>462</ele>
      </trkpt>
      <trkpt lat="46.2481" lon="6.26649">
        <ele>461</ele>
      </trkpt>
      <trkpt lat="46.24869" lon="6.26612">
        <ele>462</ele>
      </trkpt>
      <trkpt lat="46.24927" lon="6.26551">
        <ele>462</ele>
      </trkpt>
      <trkpt lat="46.2498" lon="6.26468">
        <ele>462</ele>
      </trkpt>
      <trkpt lat="46.25041" lon="6.26383">
        <ele>461</ele>
      </trkpt>
      <trkpt lat="46.25106" lon="6.26284">
        <ele>459</ele>
      </trkpt>
      <trkpt lat="46.25134" lon="6.26152">
        <ele>458</ele>
      </trkpt>
      <trkpt lat="46.25169" lon="6.26034">
        <ele>458</ele>
      </trkpt>
      <trkpt lat="46.25181" lon="6.26015">
        <ele>458</ele>
      </trkpt>
      <trkpt lat="46.25237" lon="6.26061">
        <ele>459</ele>
      </trkpt>
      <trkpt lat="46.25309" lon="6.2611">
        <ele>459.2</ele>
      </trkpt>
      <trkpt lat="46.25533" lon="6.26207">
        <ele>451.9</ele>
      </trkpt>
    </trkseg>
  </trk>
</gpx>